sensor_id;sensor_type;location;lat;lon;timestamp;temperature;humidity
56046;DHT22;41913;51.030;3.706;2024-01-11T00:00:33;18.90;62.10
56046;DHT22;41913;51.030;3.706;2024-01-11T00:02:58;18.90;62.20
56046;DHT22;41913;51.030;3.706;2024-01-11T00:05:24;18.90;62.40
56046;DHT22;41913;51.030;3.706;2024-01-11T00:07:50;18.90;62.60
56046;DHT22;41913;51.030;3.706;2024-01-11T00:10:16;18.90;62.60
56046;DHT22;41913;51.030;3.706;2024-01-11T00:12:42;18.90;62.60
56046;DHT22;41913;51.030;3.706;2024-01-11T00:15:08;18.80;62.50
56046;DHT22;41913;51.030;3.706;2024-01-11T00:17:34;18.80;62.30
56046;DHT22;41913;51.030;3.706;2024-01-11T00:20:00;18.80;62.20
56046;DHT22;41913;51.030;3.706;2024-01-11T00:22:26;18.80;62.10
56046;DHT22;41913;51.030;3.706;2024-01-11T00:24:52;18.80;62.10
56046;DHT22;41913;51.030;3.706;2024-01-11T00:27:18;18.80;62.30
56046;DHT22;41913;51.030;3.706;2024-01-11T00:29:44;18.80;62.50
56046;DHT22;41913;51.030;3.706;2024-01-11T00:32:10;18.80;62.60
56046;DHT22;41913;51.030;3.706;2024-01-11T00:34:36;18.80;62.60
56046;DHT22;41913;51.030;3.706;2024-01-11T00:37:02;18.70;62.40
56046;DHT22;41913;51.030;3.706;2024-01-11T00:39:28;18.70;62.20
56046;DHT22;41913;51.030;3.706;2024-01-11T00:41:55;18.70;62.10
56046;DHT22;41913;51.030;3.706;2024-01-11T00:44:20;18.70;62.00
56046;DHT22;41913;51.030;3.706;2024-01-11T00:46:46;18.60;62.00
56046;DHT22;41913;51.030;3.706;2024-01-11T00:49:12;18.60;62.70
56046;DHT22;41913;51.030;3.706;2024-01-11T00:51:38;18.70;62.30
56046;DHT22;41913;51.030;3.706;2024-01-11T00:54:04;18.70;62.50
56046;DHT22;41913;51.030;3.706;2024-01-11T00:56:29;18.70;62.40
56046;DHT22;41913;51.030;3.706;2024-01-11T00:58:55;18.60;62.30
56046;DHT22;41913;51.030;3.706;2024-01-11T01:01:21;18.60;62.20
56046;DHT22;41913;51.030;3.706;2024-01-11T01:03:47;18.60;62.10
56046;DHT22;41913;51.030;3.706;2024-01-11T01:06:13;18.60;62.50
56046;DHT22;41913;51.030;3.706;2024-01-11T01:08:39;18.50;61.90
56046;DHT22;41913;51.030;3.706;2024-01-11T01:11:04;18.50;62.00
56046;DHT22;41913;51.030;3.706;2024-01-11T01:13:30;18.60;62.20
56046;DHT22;41913;51.030;3.706;2024-01-11T01:15:56;18.60;62.40
56046;DHT22;41913;51.030;3.706;2024-01-11T01:18:22;18.60;62.40
56046;DHT22;41913;51.030;3.706;2024-01-11T01:20:48;18.60;62.30
56046;DHT22;41913;51.030;3.706;2024-01-11T01:23:13;18.50;62.10
56046;DHT22;41913;51.030;3.706;2024-01-11T01:25:39;18.50;62.00
56046;DHT22;41913;51.030;3.706;2024-01-11T01:28:05;18.50;61.90
56046;DHT22;41913;51.030;3.706;2024-01-11T01:30:31;18.50;61.90
56046;DHT22;41913;51.030;3.706;2024-01-11T01:32:56;18.50;61.90
56046;DHT22;41913;51.030;3.706;2024-01-11T01:35:22;18.50;62.10
56046;DHT22;41913;51.030;3.706;2024-01-11T01:37:48;18.50;62.20
56046;DHT22;41913;51.030;3.706;2024-01-11T01:40:14;18.50;62.30
56046;DHT22;41913;51.030;3.706;2024-01-11T01:42:43;18.50;62.20
56046;DHT22;41913;51.030;3.706;2024-01-11T01:45:10;18.40;62.10
56046;DHT22;41913;51.030;3.706;2024-01-11T01:47:40;18.40;62.00
56046;DHT22;41913;51.030;3.706;2024-01-11T01:50:07;18.40;61.80
56046;DHT22;41913;51.030;3.706;2024-01-11T01:52:33;18.40;61.80
56046;DHT22;41913;51.030;3.706;2024-01-11T01:55:02;18.40;61.80
56046;DHT22;41913;51.030;3.706;2024-01-11T01:57:29;18.40;62.00
56046;DHT22;41913;51.030;3.706;2024-01-11T01:59:56;18.40;62.10
56046;DHT22;41913;51.030;3.706;2024-01-11T02:02:22;18.40;62.20
56046;DHT22;41913;51.030;3.706;2024-01-11T02:04:48;18.40;62.10
56046;DHT22;41913;51.030;3.706;2024-01-11T02:07:14;18.40;62.10
56046;DHT22;41913;51.030;3.706;2024-01-11T02:09:41;18.30;61.80
56046;DHT22;41913;51.030;3.706;2024-01-11T02:12:09;18.30;61.70
56046;DHT22;41913;51.030;3.706;2024-01-11T02:14:37;18.30;61.60
56046;DHT22;41913;51.030;3.706;2024-01-11T02:17:03;18.30;61.70
56046;DHT22;41913;51.030;3.706;2024-01-11T02:19:29;18.30;61.80
56046;DHT22;41913;51.030;3.706;2024-01-11T02:22:00;18.30;61.90
56046;DHT22;41913;51.030;3.706;2024-01-11T02:24:28;18.30;62.00
56046;DHT22;41913;51.030;3.706;2024-01-11T02:27:00;18.30;62.00
56046;DHT22;41913;51.030;3.706;2024-01-11T02:29:27;18.30;61.90
56046;DHT22;41913;51.030;3.706;2024-01-11T02:31:57;18.30;61.80
56046;DHT22;41913;51.030;3.706;2024-01-11T02:34:24;18.30;61.60
56046;DHT22;41913;51.030;3.706;2024-01-11T02:36:51;18.20;61.40
56046;DHT22;41913;51.030;3.706;2024-01-11T02:39:19;18.20;61.50
56046;DHT22;41913;51.030;3.706;2024-01-11T02:41:47;18.20;61.60
56046;DHT22;41913;51.030;3.706;2024-01-11T02:44:15;18.30;61.90
56046;DHT22;41913;51.030;3.706;2024-01-11T02:46:41;18.30;61.90
56046;DHT22;41913;51.030;3.706;2024-01-11T02:49:07;18.20;61.80
56046;DHT22;41913;51.030;3.706;2024-01-11T02:51:33;18.20;61.80
56046;DHT22;41913;51.030;3.706;2024-01-11T02:53:59;18.20;61.70
56046;DHT22;41913;51.030;3.706;2024-01-11T02:56:24;18.20;61.50
56046;DHT22;41913;51.030;3.706;2024-01-11T02:58:50;18.20;61.40
56046;DHT22;41913;51.030;3.706;2024-01-11T03:01:17;18.20;62.00
56046;DHT22;41913;51.030;3.706;2024-01-11T03:03:43;18.20;61.50
56046;DHT22;41913;51.030;3.706;2024-01-11T03:06:10;18.20;61.60
56046;DHT22;41913;51.030;3.706;2024-01-11T03:08:35;18.20;61.70
56046;DHT22;41913;51.030;3.706;2024-01-11T03:11:02;18.20;61.70
56046;DHT22;41913;51.030;3.706;2024-01-11T03:13:27;18.20;61.70
56046;DHT22;41913;51.030;3.706;2024-01-11T03:15:53;18.20;61.60
56046;DHT22;41913;51.030;3.706;2024-01-11T03:18:19;18.20;61.50
56046;DHT22;41913;51.030;3.706;2024-01-11T03:20:45;18.10;61.30
56046;DHT22;41913;51.030;3.706;2024-01-11T03:23:10;18.10;61.30
56046;DHT22;41913;51.030;3.706;2024-01-11T03:25:36;18.10;61.30
56046;DHT22;41913;51.030;3.706;2024-01-11T03:28:02;18.10;61.40
56046;DHT22;41913;51.030;3.706;2024-01-11T03:30:28;18.10;61.60
56046;DHT22;41913;51.030;3.706;2024-01-11T03:32:54;18.10;61.60
56046;DHT22;41913;51.030;3.706;2024-01-11T03:35:20;18.10;61.50
56046;DHT22;41913;51.030;3.706;2024-01-11T03:37:46;18.10;61.50
56046;DHT22;41913;51.030;3.706;2024-01-11T03:40:12;18.10;61.40
56046;DHT22;41913;51.030;3.706;2024-01-11T03:42:38;18.10;61.30
56046;DHT22;41913;51.030;3.706;2024-01-11T03:45:04;18.10;61.20
56046;DHT22;41913;51.030;3.706;2024-01-11T03:47:30;18.00;61.20
56046;DHT22;41913;51.030;3.706;2024-01-11T03:49:56;18.00;61.30
56046;DHT22;41913;51.030;3.706;2024-01-11T03:52:22;18.00;61.40
56046;DHT22;41913;51.030;3.706;2024-01-11T03:54:48;18.10;61.50
56046;DHT22;41913;51.030;3.706;2024-01-11T03:57:14;18.10;61.50
56046;DHT22;41913;51.030;3.706;2024-01-11T03:59:40;18.10;61.40
56046;DHT22;41913;51.030;3.706;2024-01-11T04:02:06;18.00;61.30
56046;DHT22;41913;51.030;3.706;2024-01-11T04:04:33;18.00;61.20
56046;DHT22;41913;51.030;3.706;2024-01-11T04:06:59;18.00;61.10
56046;DHT22;41913;51.030;3.706;2024-01-11T04:09:25;18.00;61.10
56046;DHT22;41913;51.030;3.706;2024-01-11T04:11:50;18.00;61.20
56046;DHT22;41913;51.030;3.706;2024-01-11T04:14:16;18.00;61.30
56046;DHT22;41913;51.030;3.706;2024-01-11T04:16:42;18.10;61.40
56046;DHT22;41913;51.030;3.706;2024-01-11T04:19:09;18.10;61.40
56046;DHT22;41913;51.030;3.706;2024-01-11T04:21:34;18.00;61.30
56046;DHT22;41913;51.030;3.706;2024-01-11T04:24:00;18.00;61.20
56046;DHT22;41913;51.030;3.706;2024-01-11T04:26:26;18.00;61.10
56046;DHT22;41913;51.030;3.706;2024-01-11T04:28:52;18.00;61.10
56046;DHT22;41913;51.030;3.706;2024-01-11T04:31:19;18.00;61.10
56046;DHT22;41913;51.030;3.706;2024-01-11T04:33:45;18.00;61.10
56046;DHT22;41913;51.030;3.706;2024-01-11T04:36:12;18.00;61.30
56046;DHT22;41913;51.030;3.706;2024-01-11T04:38:38;18.00;61.30
56046;DHT22;41913;51.030;3.706;2024-01-11T04:41:13;18.00;61.30
56046;DHT22;41913;51.030;3.706;2024-01-11T04:43:40;18.00;61.20
56046;DHT22;41913;51.030;3.706;2024-01-11T04:46:36;18.00;61.10
56046;DHT22;41913;51.030;3.706;2024-01-11T04:49:01;17.90;60.90
56046;DHT22;41913;51.030;3.706;2024-01-11T04:51:28;17.90;60.80
56046;DHT22;41913;51.030;3.706;2024-01-11T04:53:54;17.90;60.80
56046;DHT22;41913;51.030;3.706;2024-01-11T04:56:20;17.90;60.90
56046;DHT22;41913;51.030;3.706;2024-01-11T04:58:47;17.90;61.00
56046;DHT22;41913;51.030;3.706;2024-01-11T05:01:17;17.90;61.10
56046;DHT22;41913;51.030;3.706;2024-01-11T05:03:43;17.90;61.10
56046;DHT22;41913;51.030;3.706;2024-01-11T05:06:19;17.90;61.10
56046;DHT22;41913;51.030;3.706;2024-01-11T05:08:47;17.90;61.00
56046;DHT22;41913;51.030;3.706;2024-01-11T05:13:43;17.90;60.90
56046;DHT22;41913;51.030;3.706;2024-01-11T05:18:43;17.80;60.80
56046;DHT22;41913;51.030;3.706;2024-01-11T05:21:08;17.90;61.00
56046;DHT22;41913;51.030;3.706;2024-01-11T05:23:34;17.90;61.00
56046;DHT22;41913;51.030;3.706;2024-01-11T05:26:00;17.90;61.10
56046;DHT22;41913;51.030;3.706;2024-01-11T05:28:27;17.90;61.10
56046;DHT22;41913;51.030;3.706;2024-01-11T05:30:53;17.90;61.00
56046;DHT22;41913;51.030;3.706;2024-01-11T05:33:20;17.90;60.90
56046;DHT22;41913;51.030;3.706;2024-01-11T05:35:46;17.90;60.90
56046;DHT22;41913;51.030;3.706;2024-01-11T05:38:12;17.80;60.70
56046;DHT22;41913;51.030;3.706;2024-01-11T05:40:37;17.80;60.80
56046;DHT22;41913;51.030;3.706;2024-01-11T05:43:03;17.80;60.80
56046;DHT22;41913;51.030;3.706;2024-01-11T05:45:29;17.80;60.90
56046;DHT22;41913;51.030;3.706;2024-01-11T05:47:55;17.80;61.00
56046;DHT22;41913;51.030;3.706;2024-01-11T05:50:21;17.90;61.10
56046;DHT22;41913;51.030;3.706;2024-01-11T05:52:46;17.80;61.00
56046;DHT22;41913;51.030;3.706;2024-01-11T05:55:12;17.80;60.90
56046;DHT22;41913;51.030;3.706;2024-01-11T05:57:38;17.80;60.80
56046;DHT22;41913;51.030;3.706;2024-01-11T06:00:05;17.80;60.80
56046;DHT22;41913;51.030;3.706;2024-01-11T06:02:31;17.80;60.80
56046;DHT22;41913;51.030;3.706;2024-01-11T06:04:57;17.70;60.70
56046;DHT22;41913;51.030;3.706;2024-01-11T06:07:22;17.80;60.80
56046;DHT22;41913;51.030;3.706;2024-01-11T06:09:49;17.80;60.90
56046;DHT22;41913;51.030;3.706;2024-01-11T06:12:14;17.80;61.00
56046;DHT22;41913;51.030;3.706;2024-01-11T06:14:41;17.80;61.00
56046;DHT22;41913;51.030;3.706;2024-01-11T06:17:06;17.80;60.90
56046;DHT22;41913;51.030;3.706;2024-01-11T06:19:36;17.80;60.80
56046;DHT22;41913;51.030;3.706;2024-01-11T06:22:02;17.70;60.70
56046;DHT22;41913;51.030;3.706;2024-01-11T06:24:28;17.80;60.70
56046;DHT22;41913;51.030;3.706;2024-01-11T06:26:54;17.80;61.30
56046;DHT22;41913;51.030;3.706;2024-01-11T06:29:20;17.70;60.80
56046;DHT22;41913;51.030;3.706;2024-01-11T06:31:46;17.80;60.90
56046;DHT22;41913;51.030;3.706;2024-01-11T06:34:12;17.80;61.00
56046;DHT22;41913;51.030;3.706;2024-01-11T06:36:37;17.80;61.10
56046;DHT22;41913;51.030;3.706;2024-01-11T06:39:03;17.80;61.20
56046;DHT22;41913;51.030;3.706;2024-01-11T06:41:29;17.80;61.70
56046;DHT22;41913;51.030;3.706;2024-01-11T06:43:55;17.90;62.70
56046;DHT22;41913;51.030;3.706;2024-01-11T06:46:21;17.90;62.30
56046;DHT22;41913;51.030;3.706;2024-01-11T06:48:50;18.00;62.60
56046;DHT22;41913;51.030;3.706;2024-01-11T06:51:20;18.10;63.00
56046;DHT22;41913;51.030;3.706;2024-01-11T06:53:47;18.20;63.40
56046;DHT22;41913;51.030;3.706;2024-01-11T06:56:16;18.20;65.30
56046;DHT22;41913;51.030;3.706;2024-01-11T06:58:44;18.30;66.90
56046;DHT22;41913;51.030;3.706;2024-01-11T07:01:10;18.30;69.20
56046;DHT22;41913;51.030;3.706;2024-01-11T07:03:36;18.40;70.30
56046;DHT22;41913;51.030;3.706;2024-01-11T07:06:02;18.50;70.20
56046;DHT22;41913;51.030;3.706;2024-01-11T07:08:29;18.50;69.70
56046;DHT22;41913;51.030;3.706;2024-01-11T07:10:56;18.60;68.80
56046;DHT22;41913;51.030;3.706;2024-01-11T07:13:22;18.60;68.20
56046;DHT22;41913;51.030;3.706;2024-01-11T07:15:48;18.70;67.80
56046;DHT22;41913;51.030;3.706;2024-01-11T07:18:14;18.70;67.50
56046;DHT22;41913;51.030;3.706;2024-01-11T07:20:40;18.80;67.20
56046;DHT22;41913;51.030;3.706;2024-01-11T07:23:06;18.80;66.80
56046;DHT22;41913;51.030;3.706;2024-01-11T07:25:32;18.80;66.40
56046;DHT22;41913;51.030;3.706;2024-01-11T07:28:00;18.80;66.00
56046;DHT22;41913;51.030;3.706;2024-01-11T07:30:26;18.90;65.80
56046;DHT22;41913;51.030;3.706;2024-01-11T07:32:52;18.90;65.60
56046;DHT22;41913;51.030;3.706;2024-01-11T07:35:18;19.00;65.70
56046;DHT22;41913;51.030;3.706;2024-01-11T07:37:43;19.00;65.90
56046;DHT22;41913;51.030;3.706;2024-01-11T07:40:09;19.00;66.10
56046;DHT22;41913;51.030;3.706;2024-01-11T07:42:40;19.00;66.70
56046;DHT22;41913;51.030;3.706;2024-01-11T07:45:07;19.00;67.20
56046;DHT22;41913;51.030;3.706;2024-01-11T07:47:33;19.00;67.60
56046;DHT22;41913;51.030;3.706;2024-01-11T07:49:59;19.00;67.60
56046;DHT22;41913;51.030;3.706;2024-01-11T07:52:25;19.00;67.20
56046;DHT22;41913;51.030;3.706;2024-01-11T07:54:51;19.00;66.40
56046;DHT22;41913;51.030;3.706;2024-01-11T07:57:17;19.00;65.90
56046;DHT22;41913;51.030;3.706;2024-01-11T07:59:42;19.00;65.00
56046;DHT22;41913;51.030;3.706;2024-01-11T08:02:08;19.00;64.50
56046;DHT22;41913;51.030;3.706;2024-01-11T08:04:34;19.00;63.80
56046;DHT22;41913;51.030;3.706;2024-01-11T08:07:00;19.10;63.30
56046;DHT22;41913;51.030;3.706;2024-01-11T08:09:28;19.10;62.90
56046;DHT22;41913;51.030;3.706;2024-01-11T08:11:54;19.10;62.50
56046;DHT22;41913;51.030;3.706;2024-01-11T08:14:22;19.10;62.20
56046;DHT22;41913;51.030;3.706;2024-01-11T08:16:50;19.10;62.00
56046;DHT22;41913;51.030;3.706;2024-01-11T08:19:15;19.20;62.00
56046;DHT22;41913;51.030;3.706;2024-01-11T08:21:42;19.20;61.90
56046;DHT22;41913;51.030;3.706;2024-01-11T08:24:08;19.20;61.80
56046;DHT22;41913;51.030;3.706;2024-01-11T08:26:34;19.30;61.80
56046;DHT22;41913;51.030;3.706;2024-01-11T08:28:59;19.30;61.60
56046;DHT22;41913;51.030;3.706;2024-01-11T08:31:26;19.30;61.60
56046;DHT22;41913;51.030;3.706;2024-01-11T08:33:53;19.30;61.50
56046;DHT22;41913;51.030;3.706;2024-01-11T08:36:19;19.30;61.50
56046;DHT22;41913;51.030;3.706;2024-01-11T08:38:45;19.40;61.60
56046;DHT22;41913;51.030;3.706;2024-01-11T08:41:11;19.40;61.60
56046;DHT22;41913;51.030;3.706;2024-01-11T08:43:38;19.50;61.60
56046;DHT22;41913;51.030;3.706;2024-01-11T08:46:05;19.50;61.60
56046;DHT22;41913;51.030;3.706;2024-01-11T08:48:30;19.50;61.60
56046;DHT22;41913;51.030;3.706;2024-01-11T08:50:57;19.50;61.60
56046;DHT22;41913;51.030;3.706;2024-01-11T08:53:23;19.60;61.60
56046;DHT22;41913;51.030;3.706;2024-01-11T08:55:48;19.60;61.60
56046;DHT22;41913;51.030;3.706;2024-01-11T08:58:15;19.60;61.60
56046;DHT22;41913;51.030;3.706;2024-01-11T09:00:41;19.60;61.70
56046;DHT22;41913;51.030;3.706;2024-01-11T09:03:07;19.70;61.60
56046;DHT22;41913;51.030;3.706;2024-01-11T09:05:36;19.70;61.70
56046;DHT22;41913;51.030;3.706;2024-01-11T09:08:02;19.70;61.70
56046;DHT22;41913;51.030;3.706;2024-01-11T09:10:27;19.70;61.70
56046;DHT22;41913;51.030;3.706;2024-01-11T09:12:53;19.80;61.90
56046;DHT22;41913;51.030;3.706;2024-01-11T09:15:20;19.70;61.70
56046;DHT22;41913;51.030;3.706;2024-01-11T09:17:45;19.80;61.80
56046;DHT22;41913;51.030;3.706;2024-01-11T09:20:12;19.80;61.70
56046;DHT22;41913;51.030;3.706;2024-01-11T09:22:39;19.80;61.60
56046;DHT22;41913;51.030;3.706;2024-01-11T09:25:05;19.80;61.60
56046;DHT22;41913;51.030;3.706;2024-01-11T09:27:32;19.80;61.60
56046;DHT22;41913;51.030;3.706;2024-01-11T09:29:58;19.80;61.60
56046;DHT22;41913;51.030;3.706;2024-01-11T09:32:25;19.80;61.50
56046;DHT22;41913;51.030;3.706;2024-01-11T09:34:51;19.80;61.40
56046;DHT22;41913;51.030;3.706;2024-01-11T09:37:16;19.80;61.60
56046;DHT22;41913;51.030;3.706;2024-01-11T09:39:42;19.90;61.60
56046;DHT22;41913;51.030;3.706;2024-01-11T09:42:08;19.80;61.50
56046;DHT22;41913;51.030;3.706;2024-01-11T09:44:36;19.90;61.60
56046;DHT22;41913;51.030;3.706;2024-01-11T09:47:07;19.90;61.30
56046;DHT22;41913;51.030;3.706;2024-01-11T09:49:36;19.90;61.60
56046;DHT22;41913;51.030;3.706;2024-01-11T09:52:04;19.90;61.30
56046;DHT22;41913;51.030;3.706;2024-01-11T09:54:30;20.00;61.20
56046;DHT22;41913;51.030;3.706;2024-01-11T09:56:59;20.00;61.10
56046;DHT22;41913;51.030;3.706;2024-01-11T09:59:25;20.00;61.10
56046;DHT22;41913;51.030;3.706;2024-01-11T10:01:52;20.00;61.00
56046;DHT22;41913;51.030;3.706;2024-01-11T10:04:18;20.00;60.90
56046;DHT22;41913;51.030;3.706;2024-01-11T10:06:44;20.10;60.90
56046;DHT22;41913;51.030;3.706;2024-01-11T10:09:10;20.10;60.90
56046;DHT22;41913;51.030;3.706;2024-01-11T10:11:37;20.10;60.90
56046;DHT22;41913;51.030;3.706;2024-01-11T10:14:03;20.10;60.90
56046;DHT22;41913;51.030;3.706;2024-01-11T10:16:31;20.10;61.10
56046;DHT22;41913;51.030;3.706;2024-01-11T10:18:58;20.30;61.60
56046;DHT22;41913;51.030;3.706;2024-01-11T10:21:24;20.50;62.50
56046;DHT22;41913;51.030;3.706;2024-01-11T10:23:52;20.50;61.70
56046;DHT22;41913;51.030;3.706;2024-01-11T10:26:19;20.50;61.40
56046;DHT22;41913;51.030;3.706;2024-01-11T10:28:47;20.50;61.30
56046;DHT22;41913;51.030;3.706;2024-01-11T10:31:13;20.50;61.20
56046;DHT22;41913;51.030;3.706;2024-01-11T10:33:45;20.50;61.50
56046;DHT22;41913;51.030;3.706;2024-01-11T10:36:12;20.40;61.00
56046;DHT22;41913;51.030;3.706;2024-01-11T10:38:39;20.30;60.80
56046;DHT22;41913;51.030;3.706;2024-01-11T10:41:06;20.20;60.60
56046;DHT22;41913;51.030;3.706;2024-01-11T10:43:32;20.10;60.40
56046;DHT22;41913;51.030;3.706;2024-01-11T10:46:02;20.10;60.60
56046;DHT22;41913;51.030;3.706;2024-01-11T10:48:31;20.10;61.20
56046;DHT22;41913;51.030;3.706;2024-01-11T10:51:01;20.10;60.90
56046;DHT22;41913;51.030;3.706;2024-01-11T10:53:47;20.20;61.30
56046;DHT22;41913;51.030;3.706;2024-01-11T10:56:16;20.10;60.40
56046;DHT22;41913;51.030;3.706;2024-01-11T10:58:43;19.90;60.00
56046;DHT22;41913;51.030;3.706;2024-01-11T11:01:11;19.70;60.00
56046;DHT22;41913;51.030;3.706;2024-01-11T11:03:38;19.60;60.00
56046;DHT22;41913;51.030;3.706;2024-01-11T11:06:07;19.50;60.00
56046;DHT22;41913;51.030;3.706;2024-01-11T11:08:34;19.40;59.90
56046;DHT22;41913;51.030;3.706;2024-01-11T11:11:03;19.40;59.90
56046;DHT22;41913;51.030;3.706;2024-01-11T11:13:32;19.30;60.20
56046;DHT22;41913;51.030;3.706;2024-01-11T11:15:58;19.30;60.40
56046;DHT22;41913;51.030;3.706;2024-01-11T11:18:25;19.30;60.60
56046;DHT22;41913;51.030;3.706;2024-01-11T11:20:51;19.30;60.70
56046;DHT22;41913;51.030;3.706;2024-01-11T11:23:18;19.20;60.60
56046;DHT22;41913;51.030;3.706;2024-01-11T11:25:48;19.20;60.60
56046;DHT22;41913;51.030;3.706;2024-01-11T11:28:16;19.20;60.60
56046;DHT22;41913;51.030;3.706;2024-01-11T11:30:43;19.10;60.40
56046;DHT22;41913;51.030;3.706;2024-01-11T11:33:10;19.10;60.50
56046;DHT22;41913;51.030;3.706;2024-01-11T11:35:36;19.10;60.50
56046;DHT22;41913;51.030;3.706;2024-01-11T11:38:02;19.10;60.70
56046;DHT22;41913;51.030;3.706;2024-01-11T11:40:38;19.10;60.80
56046;DHT22;41913;51.030;3.706;2024-01-11T11:43:10;19.10;60.90
56046;DHT22;41913;51.030;3.706;2024-01-11T11:45:37;19.10;60.90
56046;DHT22;41913;51.030;3.706;2024-01-11T11:51:15;19.00;60.70
56046;DHT22;41913;51.030;3.706;2024-01-11T11:53:42;19.00;60.70
56046;DHT22;41913;51.030;3.706;2024-01-11T11:56:09;19.00;60.70
56046;DHT22;41913;51.030;3.706;2024-01-11T11:58:36;19.00;60.70
56046;DHT22;41913;51.030;3.706;2024-01-11T12:01:03;19.00;60.80
56046;DHT22;41913;51.030;3.706;2024-01-11T12:03:42;19.00;61.50
56046;DHT22;41913;51.030;3.706;2024-01-11T12:06:09;18.90;60.90
56046;DHT22;41913;51.030;3.706;2024-01-11T12:08:36;18.90;60.90
56046;DHT22;41913;51.030;3.706;2024-01-11T12:11:03;18.90;60.80
56046;DHT22;41913;51.030;3.706;2024-01-11T12:13:29;18.90;60.80
56046;DHT22;41913;51.030;3.706;2024-01-11T12:15:56;18.90;60.70
56046;DHT22;41913;51.030;3.706;2024-01-11T12:18:22;18.90;60.70
56046;DHT22;41913;51.030;3.706;2024-01-11T12:20:48;18.90;60.80
56046;DHT22;41913;51.030;3.706;2024-01-11T12:23:15;18.90;60.90
56046;DHT22;41913;51.030;3.706;2024-01-11T12:25:41;18.90;61.00
56046;DHT22;41913;51.030;3.706;2024-01-11T12:28:07;18.90;61.00
56046;DHT22;41913;51.030;3.706;2024-01-11T12:30:34;18.80;60.90
56046;DHT22;41913;51.030;3.706;2024-01-11T12:33:00;18.80;60.90
56046;DHT22;41913;51.030;3.706;2024-01-11T12:35:27;18.80;60.70
56046;DHT22;41913;51.030;3.706;2024-01-11T12:38:00;18.80;60.70
56046;DHT22;41913;51.030;3.706;2024-01-11T12:40:26;18.80;60.70
56046;DHT22;41913;51.030;3.706;2024-01-11T12:42:53;18.80;60.70
56046;DHT22;41913;51.030;3.706;2024-01-11T12:45:19;18.80;60.90
56046;DHT22;41913;51.030;3.706;2024-01-11T12:47:46;18.80;61.00
56046;DHT22;41913;51.030;3.706;2024-01-11T12:50:12;18.80;61.00
56046;DHT22;41913;51.030;3.706;2024-01-11T12:52:38;18.80;61.00
56046;DHT22;41913;51.030;3.706;2024-01-11T12:55:06;18.80;60.90
56046;DHT22;41913;51.030;3.706;2024-01-11T12:57:35;18.80;60.80
56046;DHT22;41913;51.030;3.706;2024-01-11T13:00:11;18.70;60.70
56046;DHT22;41913;51.030;3.706;2024-01-11T13:02:39;18.70;60.70
56046;DHT22;41913;51.030;3.706;2024-01-11T13:05:05;18.70;60.80
56046;DHT22;41913;51.030;3.706;2024-01-11T13:07:33;18.70;60.90
56046;DHT22;41913;51.030;3.706;2024-01-11T13:10:02;18.80;61.10
56046;DHT22;41913;51.030;3.706;2024-01-11T13:12:29;18.80;61.10
56046;DHT22;41913;51.030;3.706;2024-01-11T13:14:55;18.70;61.00
56046;DHT22;41913;51.030;3.706;2024-01-11T13:17:21;18.70;60.90
56046;DHT22;41913;51.030;3.706;2024-01-11T13:19:47;18.70;60.80
56046;DHT22;41913;51.030;3.706;2024-01-11T13:22:13;18.70;60.80
56046;DHT22;41913;51.030;3.706;2024-01-11T13:24:39;18.70;60.80
56046;DHT22;41913;51.030;3.706;2024-01-11T13:27:05;18.70;60.80
56046;DHT22;41913;51.030;3.706;2024-01-11T13:29:31;18.70;60.90
56046;DHT22;41913;51.030;3.706;2024-01-11T13:31:57;18.70;61.00
56046;DHT22;41913;51.030;3.706;2024-01-11T13:34:23;18.70;61.00
56046;DHT22;41913;51.030;3.706;2024-01-11T13:36:49;18.70;60.90
56046;DHT22;41913;51.030;3.706;2024-01-11T13:39:17;18.60;60.80
56046;DHT22;41913;51.030;3.706;2024-01-11T13:41:44;18.60;61.40
56046;DHT22;41913;51.030;3.706;2024-01-11T13:44:10;18.60;60.80
56046;DHT22;41913;51.030;3.706;2024-01-11T13:46:37;18.60;60.80
56046;DHT22;41913;51.030;3.706;2024-01-11T13:49:03;18.60;60.80
56046;DHT22;41913;51.030;3.706;2024-01-11T13:51:32;18.60;60.90
56046;DHT22;41913;51.030;3.706;2024-01-11T13:53:58;18.60;61.00
56046;DHT22;41913;51.030;3.706;2024-01-11T13:56:27;18.60;61.00
56046;DHT22;41913;51.030;3.706;2024-01-11T13:58:53;18.60;60.90
56046;DHT22;41913;51.030;3.706;2024-01-11T14:01:18;18.60;60.90
56046;DHT22;41913;51.030;3.706;2024-01-11T14:03:44;18.60;60.80
56046;DHT22;41913;51.030;3.706;2024-01-11T14:06:10;18.60;60.70
56046;DHT22;41913;51.030;3.706;2024-01-11T14:08:36;18.60;60.80
56046;DHT22;41913;51.030;3.706;2024-01-11T14:11:02;18.60;60.80
56046;DHT22;41913;51.030;3.706;2024-01-11T14:13:27;18.60;60.90
56046;DHT22;41913;51.030;3.706;2024-01-11T14:15:54;18.60;61.00
56046;DHT22;41913;51.030;3.706;2024-01-11T14:18:22;18.60;61.60
56046;DHT22;41913;51.030;3.706;2024-01-11T14:20:50;18.60;60.90
56046;DHT22;41913;51.030;3.706;2024-01-11T14:23:16;18.60;60.90
56046;DHT22;41913;51.030;3.706;2024-01-11T14:25:41;18.50;60.80
56046;DHT22;41913;51.030;3.706;2024-01-11T14:28:07;18.60;60.80
56046;DHT22;41913;51.030;3.706;2024-01-11T14:30:33;18.50;60.80
56046;DHT22;41913;51.030;3.706;2024-01-11T14:33:00;18.50;60.90
56046;DHT22;41913;51.030;3.706;2024-01-11T14:35:25;18.60;61.00
56046;DHT22;41913;51.030;3.706;2024-01-11T14:37:51;18.60;61.10
56046;DHT22;41913;51.030;3.706;2024-01-11T14:40:18;18.60;61.10
56046;DHT22;41913;51.030;3.706;2024-01-11T14:42:44;18.60;61.10
56046;DHT22;41913;51.030;3.706;2024-01-11T14:45:10;18.50;61.00
56046;DHT22;41913;51.030;3.706;2024-01-11T14:47:38;18.50;61.00
56046;DHT22;41913;51.030;3.706;2024-01-11T14:50:04;18.50;61.00
56046;DHT22;41913;51.030;3.706;2024-01-11T14:52:31;18.50;61.00
56046;DHT22;41913;51.030;3.706;2024-01-11T14:54:57;18.50;61.10
56046;DHT22;41913;51.030;3.706;2024-01-11T14:57:23;18.50;61.20
56046;DHT22;41913;51.030;3.706;2024-01-11T14:59:49;18.50;61.30
56046;DHT22;41913;51.030;3.706;2024-01-11T15:02:14;18.50;61.30
56046;DHT22;41913;51.030;3.706;2024-01-11T15:04:40;18.50;61.20
56046;DHT22;41913;51.030;3.706;2024-01-11T15:07:06;18.50;61.20
56046;DHT22;41913;51.030;3.706;2024-01-11T15:09:33;18.50;61.20
56046;DHT22;41913;51.030;3.706;2024-01-11T15:11:59;18.50;61.20
56046;DHT22;41913;51.030;3.706;2024-01-11T15:14:25;18.50;61.20
56046;DHT22;41913;51.030;3.706;2024-01-11T15:16:51;18.50;61.30
56046;DHT22;41913;51.030;3.706;2024-01-11T15:19:18;18.50;61.40
56046;DHT22;41913;51.030;3.706;2024-01-11T15:21:43;18.50;61.50
56046;DHT22;41913;51.030;3.706;2024-01-11T15:24:09;18.50;61.50
56046;DHT22;41913;51.030;3.706;2024-01-11T15:26:35;18.50;61.50
56046;DHT22;41913;51.030;3.706;2024-01-11T15:29:01;18.50;61.50
56046;DHT22;41913;51.030;3.706;2024-01-11T15:31:26;18.50;61.40
56046;DHT22;41913;51.030;3.706;2024-01-11T15:33:53;18.50;61.40